createdAt,value
2018-03-19T00:00:52.724Z,95108.61
2018-03-19T00:02:31.561Z,94998.25
2018-03-19T00:04:10.748Z,94941.78
2018-03-19T00:05:49.753Z,94934.59
2018-03-19T00:07:28.417Z,95010.72
2018-03-19T00:09:07.321Z,94961.91
2018-03-19T00:10:45.653Z,94928.48
2018-03-19T00:12:24.525Z,94875.58
2018-03-19T00:14:03.645Z,94819.52
2018-03-19T00:15:43.731Z,94836.64
2018-03-19T00:17:22.548Z,94878.06
2018-03-19T00:19:01.592Z,94909.73
2018-03-19T00:20:40.687Z,94947.37
2018-03-19T00:22:20.922Z,94941.28
2018-03-19T00:24:01.655Z,94902.45
2018-03-19T00:25:40.778Z,95073.80
2018-03-19T00:27:19.979Z,95050.34
2018-03-19T00:28:58.778Z,94948.87
2018-03-19T00:30:37.554Z,94967.75
2018-03-19T00:32:17.305Z,94957.95
2018-03-19T00:33:55.496Z,95065.67
2018-03-19T00:35:33.545Z,95060.53
2018-03-19T00:37:12.885Z,95014.73
2018-03-19T00:38:51.509Z,94958.33
2018-03-19T00:40:30.017Z,94956.69
2018-03-19T00:42:07.793Z,94974.16
2018-03-19T00:43:46.953Z,94965.31
2018-03-19T00:45:26.648Z,95001.13
2018-03-19T00:47:06.066Z,95059.77
2018-03-19T00:48:44.927Z,95122.69
2018-03-19T00:50:23.067Z,95128.17
2018-03-19T00:52:02.068Z,95174.35
2018-03-19T00:53:42.082Z,95062.68
2018-03-19T00:55:20.520Z,94979.33
2018-03-19T00:57:00.297Z,94954.55
2018-03-19T00:58:39.329Z,94957.91
2018-03-19T01:00:20.798Z,94995.92
2018-03-19T01:01:59.787Z,95049.92
2018-03-19T01:03:39.035Z,95174.89
2018-03-19T01:05:18.304Z,95292.63
2018-03-19T01:06:56.776Z,95198.33
2018-03-19T01:08:35.417Z,95215.02
2018-03-19T01:10:14.470Z,95173.55
2018-03-19T01:11:53.807Z,95176.46
2018-03-19T01:13:33.075Z,94996.34
2018-03-19T01:15:13.063Z,94969.41
2018-03-19T01:16:51.875Z,95026.42
2018-03-19T01:18:30.296Z,94926.72
2018-03-19T01:20:10.238Z,94863.89
2018-03-19T01:21:49.168Z,94814.39
2018-03-19T01:23:27.651Z,94878.48
2018-03-19T01:25:07.033Z,94928.38
2018-03-19T01:26:44.757Z,95035.66
2018-03-19T01:28:22.968Z,94954.50
2018-03-19T01:30:04.616Z,94862.66
2018-03-19T01:31:44.055Z,94987.45
2018-03-19T01:33:23.138Z,94990.28
2018-03-19T01:35:02.211Z,94927.53
2018-03-19T01:36:41.825Z,94953.66
2018-03-19T01:38:21.147Z,94936.91
2018-03-19T01:39:59.462Z,94926.19
2018-03-19T01:41:38.598Z,94878.74
2018-03-19T01:43:17.536Z,94869.86
2018-03-19T01:44:56.871Z,94950.17
2018-03-19T01:46:37.135Z,94886.05
2018-03-19T01:48:16.013Z,94790.81
2018-03-19T01:49:56.347Z,94730.17
2018-03-19T01:51:35.953Z,94796.37
2018-03-19T01:53:16.213Z,94844.17
2018-03-19T01:54:54.643Z,94892.45
2018-03-19T01:56:32.887Z,94805.70
2018-03-19T01:58:12.263Z,94821.55
2018-03-19T01:59:50.568Z,94769.39
2018-03-19T02:01:30.365Z,94745.12
2018-03-19T02:03:09.188Z,94687.45
2018-03-19T02:04:48.910Z,94682.86
2018-03-19T02:06:27.488Z,94812.63
2018-03-19T02:08:06.346Z,94911.59
2018-03-19T02:09:45.352Z,94932.63
2018-03-19T02:11:25.114Z,94852.74
2018-03-19T02:13:03.950Z,94742.52
2018-03-19T02:14:42.737Z,94722.52
2018-03-19T02:16:21.872Z,94690.05
2018-03-19T02:18:00.981Z,94693.92
2018-03-19T02:19:40.614Z,94743.37
2018-03-19T02:21:19.780Z,94773.17
2018-03-19T02:22:58.068Z,94698.58
2018-03-19T02:24:36.634Z,94663.55
2018-03-19T02:26:14.539Z,94781.31
2018-03-19T02:27:54.338Z,94808.61
2018-03-19T02:29:32.781Z,94889.76
2018-03-19T02:31:12.207Z,94917.53
2018-03-19T02:32:49.824Z,94764.25
2018-03-19T02:34:28.380Z,94721.64
2018-03-19T02:36:06.671Z,94800.87
2018-03-19T02:37:46.250Z,94929.55
2018-03-19T02:39:25.076Z,94955.56
2018-03-19T02:41:03.954Z,94894.02
2018-03-19T02:42:42.285Z,94749.72
2018-03-19T02:44:21.581Z,94820.54
2018-03-19T02:46:00.061Z,94779.55
2018-03-19T02:47:38.109Z,94752.28
2018-03-19T02:49:18.982Z,94790.70
2018-03-19T02:50:57.688Z,94734.80
2018-03-19T02:52:35.872Z,94655.91
2018-03-19T02:54:14.409Z,94685.69
2018-03-19T02:55:52.806Z,94591.41
2018-03-19T02:57:30.740Z,94669.47
2018-03-19T02:59:08.593Z,94686.56
2018-03-19T03:00:47.593Z,94696.77
2018-03-19T03:02:26.982Z,94678.12
2018-03-19T03:04:04.477Z,94717.27
2018-03-19T03:05:42.711Z,94747.95
2018-03-19T03:07:20.719Z,94685.69
2018-03-19T03:09:06.750Z,94628.10
2018-03-19T03:10:45.362Z,94530.38
2018-03-19T03:12:23.503Z,94525.64
2018-03-19T03:14:02.405Z,94518.04
2018-03-19T03:15:41.194Z,94534.99
2018-03-19T03:17:19.573Z,94561.94
2018-03-19T03:18:58.498Z,94612.31
2018-03-19T03:20:36.754Z,94628.52
2018-03-19T03:22:15.607Z,94629.78
2018-03-19T03:23:53.740Z,94651.16
2018-03-19T03:25:32.335Z,94562.73
2018-03-19T03:27:10.857Z,94597.33
2018-03-19T03:28:53.253Z,94535.04
2018-03-19T03:30:31.515Z,94492.78
2018-03-19T03:32:10.464Z,94527.82
2018-03-19T03:33:48.461Z,94488.17
2018-03-19T03:35:26.414Z,94471.55
2018-03-19T03:37:03.858Z,94478.64
2018-03-19T03:38:43.144Z,94504.74
2018-03-19T03:40:21.266Z,94463.38
2018-03-19T03:42:00.304Z,94542.13
2018-03-19T03:43:37.894Z,94469.29
2018-03-19T03:45:16.414Z,94428.48
2018-03-19T03:46:54.583Z,94410.91
2018-03-19T03:48:33.508Z,94344.55
2018-03-19T03:50:12.349Z,94387.55
2018-03-19T03:51:50.225Z,94492.83
2018-03-19T03:53:28.506Z,94495.38
2018-03-19T03:55:07.305Z,94520.86
2018-03-19T03:56:45.463Z,94470.21
2018-03-19T03:58:23.209Z,94397.70
2018-03-19T04:00:01.027Z,94411.80
2018-03-19T04:01:40.974Z,94359.84
2018-03-19T04:03:18.884Z,94351.80
2018-03-19T04:04:56.801Z,94331.39
2018-03-19T04:06:36.081Z,94307.04
2018-03-19T04:08:14.451Z,94373.89
2018-03-19T04:09:52.159Z,94357.66
2018-03-19T04:11:30.258Z,94465.52
2018-03-19T04:13:07.570Z,94466.73
2018-03-19T04:14:44.982Z,94409.69
2018-03-19T04:16:22.477Z,94470.55
2018-03-19T04:18:01.038Z,94407.97
2018-03-19T04:19:39.960Z,94393.01
2018-03-19T04:21:17.583Z,94322.67
2018-03-19T04:22:55.801Z,94312.06
2018-03-19T04:24:34.577Z,94324.55
2018-03-19T04:26:13.414Z,94281.06
2018-03-19T04:27:51.448Z,94245.28
2018-03-19T04:29:29.362Z,94194.14
2018-03-19T04:31:07.724Z,94219.78
2018-03-19T04:32:45.957Z,94192.59
2018-03-19T04:34:23.931Z,94244.86
2018-03-19T04:36:01.438Z,94301.38
2018-03-19T04:37:40.029Z,94357.29
2018-03-19T04:39:18.648Z,94315.50
2018-03-19T04:40:57.431Z,94206.53
2018-03-19T04:42:36.291Z,94139.39
2018-03-19T04:44:14.068Z,94106.23
2018-03-19T04:45:51.895Z,94152.48
2018-03-19T04:47:29.683Z,94148.64
2018-03-19T04:49:07.899Z,94272.13
2018-03-19T04:50:46.549Z,94288.22
2018-03-19T04:52:24.630Z,94192.47
2018-03-19T04:54:02.865Z,94138.00
2018-03-19T04:55:41.656Z,94153.32
2018-03-19T04:57:19.740Z,94129.97
2018-03-19T04:58:57.539Z,94106.11
2018-03-19T05:00:37.395Z,94228.60
2018-03-19T05:02:15.303Z,94270.28
2018-03-19T05:03:53.970Z,94164.71
2018-03-19T05:05:32.552Z,94229.95
2018-03-19T05:07:10.795Z,94291.66
2018-03-19T05:08:49.159Z,94231.96
2018-03-19T05:10:28.090Z,94163.04
2018-03-19T05:12:06.883Z,94094.69
2018-03-19T05:13:45.067Z,94090.84
2018-03-19T05:15:22.945Z,94072.59
2018-03-19T05:17:00.893Z,94065.31
2018-03-19T05:18:38.586Z,94089.53
2018-03-19T05:20:16.298Z,94029.25
2018-03-19T05:21:54.314Z,93996.05
2018-03-19T05:23:32.406Z,94040.25
2018-03-19T05:25:10.095Z,94091.67
2018-03-19T05:26:47.824Z,94045.73
2018-03-19T05:28:26.691Z,94017.30
2018-03-19T05:30:06.655Z,94104.39
2018-03-19T05:31:45.011Z,94127.38
2018-03-19T05:33:23.302Z,94156.67
2018-03-19T05:35:00.839Z,94117.03
2018-03-19T05:36:38.899Z,94057.16
2018-03-19T05:38:17.614Z,94112.00
2018-03-19T05:39:55.972Z,94258.81
2018-03-19T05:41:33.932Z,94291.45
2018-03-19T05:43:12.179Z,94302.17
2018-03-19T05:44:51.251Z,94248.09
2018-03-19T05:46:29.399Z,94197.95
2018-03-19T05:48:07.684Z,94285.20
2018-03-19T05:49:47.699Z,94151.94
2018-03-19T05:51:30.356Z,94138.25
2018-03-19T05:53:09.265Z,94166.80
2018-03-19T05:54:47.187Z,94122.69
2018-03-19T05:56:26.013Z,94073.80
2018-03-19T05:58:04.214Z,94086.15
2018-03-19T05:59:42.745Z,94157.55
2018-03-19T06:01:21.890Z,94127.33
2018-03-19T06:03:00.865Z,94127.79
2018-03-19T06:04:39.300Z,94159.09
2018-03-19T06:06:18.611Z,94164.66
2018-03-19T06:07:57.508Z,94156.96
2018-03-19T06:09:36.763Z,94250.64
2018-03-19T06:11:15.755Z,94271.46
2018-03-19T06:12:55.903Z,94309.42
2018-03-19T06:14:34.870Z,94480.49
2018-03-19T06:16:13.952Z,94332.68
2018-03-19T06:17:52.450Z,94262.95
2018-03-19T06:19:30.645Z,94229.70
2018-03-19T06:21:09.541Z,94201.64
2018-03-19T06:22:47.808Z,94200.34
2018-03-19T06:24:27.801Z,94225.05
2018-03-19T06:26:06.654Z,94261.70
2018-03-19T06:27:46.720Z,94345.08
2018-03-19T06:29:25.359Z,94382.52
2018-03-19T06:31:03.417Z,94351.88
2018-03-19T06:32:42.218Z,94214.78
2018-03-19T06:34:21.422Z,94147.11
2018-03-19T06:36:00.241Z,94158.27
2018-03-19T06:37:39.661Z,94194.56
2018-03-19T06:39:19.589Z,94218.30
2018-03-19T06:40:58.764Z,94231.04
2018-03-19T06:42:37.924Z,94236.56
2018-03-19T06:44:17.254Z,94429.95
2018-03-19T06:45:56.588Z,94562.36
2018-03-19T06:47:35.820Z,94548.64
2018-03-19T06:49:15.784Z,94477.05
2018-03-19T06:50:55.319Z,94509.48
2018-03-19T06:52:34.716Z,94371.38
2018-03-19T06:54:15.457Z,94323.33
2018-03-19T06:55:54.114Z,94356.99
2018-03-19T06:57:34.989Z,94455.75
2018-03-19T06:59:13.573Z,94285.07
2018-03-19T07:00:55.109Z,94261.99
2018-03-19T07:02:34.032Z,94184.59
2018-03-19T07:04:12.708Z,94128.79
2018-03-19T07:05:51.738Z,94105.88
2018-03-19T07:07:30.547Z,94145.07
2018-03-19T07:09:09.303Z,94181.20
2018-03-19T07:10:48.469Z,94352.67
2018-03-19T07:12:28.312Z,94331.42
2018-03-19T07:14:07.375Z,94265.01
2018-03-19T07:15:46.613Z,94304.17
2018-03-19T07:17:25.618Z,94421.35
2018-03-19T07:19:05.419Z,94363.73
2018-03-19T07:20:45.880Z,94374.39
2018-03-19T07:22:26.222Z,94505.16
2018-03-19T07:24:05.590Z,94674.06
2018-03-19T07:25:45.364Z,94729.64
2018-03-19T07:27:24.295Z,94734.64
2018-03-19T07:29:02.628Z,94710.77
2018-03-19T07:30:42.301Z,94808.07
2018-03-19T07:32:21.230Z,94966.95
2018-03-19T07:34:01.552Z,94996.55
2018-03-19T07:35:39.328Z,94980.25
2018-03-19T07:37:17.951Z,94922.06
2018-03-19T07:38:57.775Z,95002.98
2018-03-19T07:40:37.670Z,94986.57
2018-03-19T07:42:16.862Z,94941.36
2018-03-19T07:43:55.636Z,95020.45
2018-03-19T07:45:35.887Z,94928.19
2018-03-19T07:47:15.769Z,94859.25
2018-03-19T07:48:54.705Z,94905.09
2018-03-19T07:50:34.503Z,95059.40
2018-03-19T07:52:12.655Z,95121.41
2018-03-19T07:53:51.936Z,95267.44
2018-03-19T07:55:31.013Z,95082.06
2018-03-19T07:57:09.401Z,95022.98
2018-03-19T07:58:51.898Z,95031.60
2018-03-19T08:00:32.316Z,94918.64
2018-03-19T08:02:10.887Z,94989.22
2018-03-19T08:03:51.139Z,95004.20
2018-03-19T08:05:30.378Z,95076.95
2018-03-19T08:07:10.936Z,94958.45
2018-03-19T08:10:44.829Z,94811.56
2018-03-19T08:12:23.080Z,94808.53
2018-03-19T08:14:01.270Z,94733.08
2018-03-19T08:15:40.509Z,94799.55
2018-03-19T08:17:18.861Z,94817.87
2018-03-19T08:18:57.881Z,94768.34
2018-03-19T08:20:36.235Z,94706.02
2018-03-19T08:22:15.425Z,94674.10
2018-03-19T08:23:54.472Z,94741.07
2018-03-19T08:25:33.023Z,94814.97
2018-03-19T08:27:11.939Z,94812.66
2018-03-19T08:28:50.356Z,94820.48
2018-03-19T08:30:29.234Z,94807.70
2018-03-19T08:32:08.511Z,94804.25
2018-03-19T08:33:47.108Z,94818.30
2018-03-19T08:35:26.235Z,94864.00
2018-03-19T08:37:04.431Z,94856.34
2018-03-19T08:38:44.373Z,94859.72
2018-03-19T08:40:22.695Z,94758.56
2018-03-19T08:42:01.898Z,94744.44
2018-03-19T08:43:42.164Z,94856.34
2018-03-19T08:45:22.070Z,94865.27
2018-03-19T08:47:01.013Z,94776.12
2018-03-19T08:48:40.191Z,94789.70
2018-03-19T08:50:20.098Z,94939.64
2018-03-19T08:51:59.624Z,94960.55
2018-03-19T08:53:38.144Z,94892.64
2018-03-19T08:55:17.228Z,94902.87
2018-03-19T08:56:55.667Z,94812.73
2018-03-19T08:58:34.975Z,94833.56
2018-03-19T09:00:15.789Z,94893.44
2018-03-19T09:01:54.101Z,94778.56
2018-03-19T09:03:33.035Z,94741.87
2018-03-19T09:05:12.119Z,94746.23
2018-03-19T09:06:50.266Z,94904.17
2018-03-19T09:08:28.547Z,94905.02
2018-03-19T09:10:07.494Z,94998.61
2018-03-19T09:11:46.411Z,94925.42
2018-03-19T09:13:25.615Z,94872.16
2018-03-19T09:15:06.355Z,94981.47
2018-03-19T09:16:45.849Z,94961.86
2018-03-19T09:18:25.307Z,94968.69
2018-03-19T09:20:04.023Z,94946.00
2018-03-19T09:21:42.375Z,95110.23
2018-03-19T09:23:21.207Z,95079.41
2018-03-19T09:24:59.766Z,95081.52
2018-03-19T09:26:41.881Z,94950.87
2018-03-19T09:28:21.240Z,94943.05
2018-03-19T09:30:01.539Z,94892.18
2018-03-19T09:31:42.193Z,94955.05
2018-03-19T09:33:20.400Z,94970.78
2018-03-19T09:34:59.950Z,94958.36
2018-03-19T09:36:40.356Z,95040.03
2018-03-19T09:38:19.850Z,94982.77
2018-03-19T09:39:58.594Z,95076.00
2018-03-19T09:41:37.363Z,95016.12
2018-03-19T09:43:15.959Z,94978.52
2018-03-19T09:44:54.757Z,94932.70
2018-03-19T09:46:33.958Z,94896.84
2018-03-19T09:48:12.090Z,94896.43
2018-03-19T09:49:50.835Z,94968.59
2018-03-19T09:51:31.836Z,95037.47
2018-03-19T09:53:11.070Z,95107.20
2018-03-19T09:54:49.733Z,95063.99
2018-03-19T09:56:27.921Z,95106.83
2018-03-19T09:58:06.014Z,95051.23
2018-03-19T09:59:43.860Z,95006.23
2018-03-19T10:01:22.470Z,94968.59
2018-03-19T10:02:59.812Z,95086.31
2018-03-19T10:04:37.983Z,95091.75
2018-03-19T10:06:15.895Z,95200.16
2018-03-19T10:07:54.750Z,95296.46
2018-03-19T10:09:33.847Z,95324.26
2018-03-19T10:11:12.524Z,95190.64
2018-03-19T10:12:51.112Z,95258.80
2018-03-19T10:14:30.311Z,95251.01
2018-03-19T10:16:09.121Z,95286.56
2018-03-19T10:17:47.990Z,95383.45
2018-03-19T10:19:27.847Z,95333.71
2018-03-19T10:21:06.680Z,95324.77
2018-03-19T10:22:45.487Z,95337.55
2018-03-19T10:24:24.968Z,95324.80
2018-03-19T10:26:02.550Z,95364.63
2018-03-19T10:27:41.430Z,95355.61
2018-03-19T10:29:20.253Z,95392.52
2018-03-19T10:31:00.277Z,95396.25
2018-03-19T10:32:39.475Z,95362.48
2018-03-19T10:34:16.994Z,95328.17
2018-03-19T10:35:56.402Z,95476.61
2018-03-19T10:37:35.869Z,95511.25
2018-03-19T10:39:14.135Z,95533.97
2018-03-19T10:40:53.601Z,95548.97
2018-03-19T10:42:31.120Z,95430.52
2018-03-19T10:44:09.015Z,95546.47
2018-03-19T10:45:47.839Z,95418.61
2018-03-19T10:47:26.011Z,95407.00
2018-03-19T10:49:04.636Z,95381.73
2018-03-19T10:50:42.954Z,95430.17
2018-03-19T10:52:21.598Z,95493.67
2018-03-19T10:54:00.600Z,95626.71
2018-03-19T10:55:40.352Z,95598.78
2018-03-19T10:57:19.372Z,95479.56
2018-03-19T10:58:57.553Z,95535.28
2018-03-19T11:00:37.144Z,95577.85
2018-03-19T11:02:17.966Z,95637.80
2018-03-19T11:03:59.889Z,95454.16
2018-03-19T11:05:45.424Z,95396.29
2018-03-19T11:07:27.744Z,95509.90
2018-03-19T11:09:12.286Z,95606.97
2018-03-19T11:10:49.579Z,95603.97
2018-03-19T11:12:28.333Z,95698.48
2018-03-19T11:14:07.428Z,95573.47
2018-03-19T11:15:47.294Z,95530.09
2018-03-19T11:17:25.968Z,95652.49
2018-03-19T11:19:04.246Z,95758.59
2018-03-19T11:20:42.257Z,95786.91
2018-03-19T11:22:20.881Z,95667.08
2018-03-19T11:24:00.411Z,95649.11
2018-03-19T11:25:38.681Z,95577.28
2018-03-19T11:27:16.641Z,95531.39
2018-03-19T11:28:55.742Z,95611.32
2018-03-19T11:30:35.204Z,95652.03
2018-03-19T11:32:14.066Z,95692.95
2018-03-19T11:33:53.427Z,95649.49
2018-03-19T11:35:34.159Z,95645.18
2018-03-19T11:37:13.465Z,95622.86
2018-03-19T11:38:52.582Z,95666.70
2018-03-19T11:40:30.635Z,95664.23
2018-03-19T11:42:09.335Z,95695.91
2018-03-19T11:43:47.737Z,95758.70
2018-03-19T11:45:26.870Z,95790.37
2018-03-19T11:47:04.860Z,95863.06
2018-03-19T11:48:43.811Z,95957.70
2018-03-19T11:50:23.513Z,96038.16
2018-03-19T11:52:01.760Z,95948.25
2018-03-19T11:53:40.495Z,95875.59
2018-03-19T11:55:18.027Z,95935.88
2018-03-19T11:56:56.586Z,95959.43
2018-03-19T11:58:35.508Z,95932.29
2018-03-19T12:00:14.822Z,95952.99
2018-03-19T12:01:54.729Z,95934.45
2018-03-19T12:03:33.890Z,95900.95
2018-03-19T12:05:12.212Z,95876.83
2018-03-19T12:06:50.345Z,95782.73
2018-03-19T12:08:31.190Z,95837.33
2018-03-19T12:10:10.495Z,95901.80
2018-03-19T12:11:48.330Z,95937.03
2018-03-19T12:13:27.263Z,96001.66
2018-03-19T12:15:07.051Z,96011.50
2018-03-19T12:16:45.787Z,96039.04
2018-03-19T12:18:24.887Z,95993.45
2018-03-19T12:20:03.653Z,95995.61
2018-03-19T12:21:43.427Z,96105.33
2018-03-19T12:23:21.794Z,96085.53
2018-03-19T12:24:59.917Z,96100.16
2018-03-19T12:26:40.411Z,96092.34
2018-03-19T12:28:18.501Z,95982.72
2018-03-19T12:29:57.353Z,96089.93
2018-03-19T12:31:36.856Z,96094.64
2018-03-19T12:33:15.057Z,96023.18
2018-03-19T12:34:53.858Z,95997.27
2018-03-19T12:36:31.652Z,95923.31
2018-03-19T12:38:10.404Z,95899.25
2018-03-19T12:39:49.565Z,96076.93
2018-03-19T12:41:27.534Z,96081.71
2018-03-19T12:43:06.906Z,96142.42
2018-03-19T12:44:45.745Z,96136.76
2018-03-19T12:46:23.859Z,96155.75
2018-03-19T12:48:02.591Z,96245.34
2018-03-19T12:49:41.517Z,96276.41
2018-03-19T12:51:20.105Z,96294.06
2018-03-19T12:52:59.019Z,96158.80
2018-03-19T12:54:38.588Z,96227.30
2018-03-19T12:56:17.000Z,96271.66
2018-03-19T12:57:56.424Z,96243.72
2018-03-19T12:59:34.667Z,96123.40
2018-03-19T13:01:14.074Z,96014.93
2018-03-19T13:02:53.567Z,96093.36
2018-03-19T13:04:32.943Z,96196.75
2018-03-19T13:06:11.302Z,96208.73
2018-03-19T13:07:56.084Z,96154.05
2018-03-19T13:09:34.702Z,96279.45
2018-03-19T13:11:13.037Z,96275.55
2018-03-19T13:12:51.538Z,96260.48
2018-03-19T13:14:29.684Z,96310.09
2018-03-19T13:16:08.249Z,96290.16
2018-03-19T13:17:47.088Z,96336.73
2018-03-19T13:19:25.099Z,96323.00
2018-03-19T13:21:03.570Z,96306.66
2018-03-19T13:22:42.452Z,96346.70
2018-03-19T13:24:21.945Z,96227.30
2018-03-19T13:26:00.413Z,96192.89
2018-03-19T13:27:38.390Z,96118.23
2018-03-19T13:29:17.137Z,96112.70
2018-03-19T13:30:57.311Z,96075.16
2018-03-19T13:32:35.330Z,96028.70
2018-03-19T13:34:13.208Z,96051.15
2018-03-19T13:35:53.910Z,96071.30
2018-03-19T13:37:32.782Z,96155.78
2018-03-19T13:39:11.081Z,96253.53
2018-03-19T13:40:49.548Z,96203.13
2018-03-19T13:42:27.974Z,96278.07
2018-03-19T13:44:06.881Z,96220.42
2018-03-19T13:45:45.889Z,96236.27
2018-03-19T13:47:23.351Z,96186.79
2018-03-19T13:49:02.027Z,96165.25
2018-03-19T13:50:43.830Z,96194.09
2018-03-19T13:52:21.951Z,96214.83
2018-03-19T13:54:01.231Z,96243.64
2018-03-19T13:55:39.326Z,96273.78
2018-03-19T13:57:18.338Z,96264.70
2018-03-19T13:58:55.424Z,96265.59
2018-03-19T14:00:34.253Z,96422.60
2018-03-19T14:02:13.808Z,96444.19
2018-03-19T14:03:52.593Z,96535.80
2018-03-19T14:05:30.975Z,96506.42
2018-03-19T14:07:10.167Z,96337.66
2018-03-19T14:08:48.634Z,96273.81
2018-03-19T14:10:27.447Z,96262.15
2018-03-19T14:12:06.126Z,96398.40
2018-03-19T14:13:44.740Z,96379.41
2018-03-19T14:15:22.757Z,96356.99
2018-03-19T14:17:02.117Z,96386.41
2018-03-19T14:18:41.547Z,96445.50
2018-03-19T14:20:22.137Z,96505.56
2018-03-19T14:22:01.927Z,96602.69
2018-03-19T14:23:41.258Z,96389.84
2018-03-19T14:25:19.641Z,96348.02
2018-03-19T14:26:58.852Z,96484.37
2018-03-19T14:28:38.122Z,96527.13
2018-03-19T14:30:19.649Z,96617.80
2018-03-19T14:31:57.957Z,96650.20
2018-03-19T14:33:37.241Z,96632.53
2018-03-19T14:35:15.080Z,96687.34
2018-03-19T14:36:53.381Z,96589.30
2018-03-19T14:38:31.902Z,96498.58
2018-03-19T14:40:10.098Z,96387.68
2018-03-19T14:41:48.717Z,96379.06
2018-03-19T14:43:27.595Z,96430.84
2018-03-19T14:45:06.992Z,96467.51
2018-03-19T14:46:46.537Z,96455.79
2018-03-19T14:48:25.059Z,96486.11
2018-03-19T14:50:04.451Z,96495.98
2018-03-19T14:51:42.553Z,96574.55
2018-03-19T14:53:20.033Z,96433.82
2018-03-19T14:54:57.790Z,96440.64
2018-03-19T14:56:35.936Z,96545.66
2018-03-19T14:58:14.531Z,96454.13
2018-03-19T14:59:51.818Z,96350.08
2018-03-19T15:01:30.812Z,96417.48
2018-03-19T15:03:10.324Z,96511.47
2018-03-19T15:04:48.518Z,96504.58
2018-03-19T15:06:27.525Z,96444.15
2018-03-19T15:08:07.378Z,96483.84
2018-03-19T15:09:45.795Z,96422.17
2018-03-19T15:11:24.432Z,96400.59
2018-03-19T15:13:04.061Z,96404.43
2018-03-19T15:14:43.219Z,96496.02
2018-03-19T15:16:23.192Z,96573.73
2018-03-19T15:18:01.917Z,96607.84
2018-03-19T15:19:40.575Z,96521.41
2018-03-19T15:21:18.738Z,96477.88
2018-03-19T15:22:58.778Z,96489.88
2018-03-19T15:24:36.935Z,96514.06
2018-03-19T15:26:14.824Z,96529.72
2018-03-19T15:29:41.959Z,96587.95
2018-03-19T15:31:21.474Z,96532.20
2018-03-19T15:33:00.544Z,96504.22
2018-03-19T15:34:40.339Z,96403.13
2018-03-19T15:36:18.286Z,96452.31
2018-03-19T15:37:56.895Z,96432.15
2018-03-19T15:39:35.248Z,96424.77
2018-03-19T15:41:13.436Z,96412.20
2018-03-19T15:42:51.926Z,96531.42
2018-03-19T15:44:30.053Z,96581.94
2018-03-19T15:46:09.818Z,96673.91
2018-03-19T15:47:49.550Z,96600.91
2018-03-19T15:49:29.426Z,96674.84
2018-03-19T15:51:07.739Z,96617.36
2018-03-19T15:52:45.731Z,96626.89
2018-03-19T15:54:24.016Z,96649.28
2018-03-19T15:56:02.396Z,96648.43
2018-03-19T15:57:40.321Z,96624.26
2018-03-19T15:59:18.907Z,96568.08
2018-03-19T16:00:57.401Z,96461.37
2018-03-19T16:02:35.046Z,96415.29
2018-03-19T16:04:13.302Z,96334.96
2018-03-19T16:05:51.466Z,96382.78
2018-03-19T16:07:30.343Z,96359.58
2018-03-19T16:09:08.437Z,96312.97
2018-03-19T16:10:47.336Z,96268.42
2018-03-19T16:12:25.859Z,96265.09
2018-03-19T16:14:05.150Z,96334.47
2018-03-19T16:15:43.582Z,96360.86
2018-03-19T16:17:21.032Z,96493.81
2018-03-19T16:18:58.377Z,96512.78
2018-03-19T16:20:37.432Z,96490.23
2018-03-19T16:22:15.125Z,96497.69
2018-03-19T16:23:53.199Z,96514.98
2018-03-19T16:25:30.782Z,96524.03
2018-03-19T16:27:09.540Z,96542.61
2018-03-19T16:28:47.188Z,96529.16
2018-03-19T16:30:27.692Z,96472.13
2018-03-19T16:32:17.266Z,96411.21
2018-03-19T16:33:55.827Z,96448.41
2018-03-19T16:35:35.207Z,96450.61
2018-03-19T16:37:13.109Z,96439.72
2018-03-19T16:39:26.572Z,96410.82
2018-03-19T16:41:04.840Z,96383.64
2018-03-19T16:42:43.453Z,96383.21
2018-03-19T16:44:21.918Z,96423.84
2018-03-19T16:46:00.565Z,96445.36
2018-03-19T16:47:38.958Z,96475.60
2018-03-19T16:49:18.578Z,96360.33
2018-03-19T16:50:56.042Z,96289.24
2018-03-19T16:52:33.811Z,96329.28
2018-03-19T16:54:11.156Z,96344.83
2018-03-19T16:55:49.086Z,96271.09
2018-03-19T16:57:26.949Z,96263.36
2018-03-19T16:59:05.827Z,96281.44
2018-03-19T17:00:44.730Z,96262.51
2018-03-19T17:02:22.697Z,96294.42
2018-03-19T17:04:01.081Z,96314.21
2018-03-19T17:05:40.673Z,96248.22
2018-03-19T17:07:19.145Z,96181.90
2018-03-19T17:08:58.555Z,96255.03
2018-03-19T17:10:37.209Z,96175.45
2018-03-19T17:12:15.898Z,96151.81
2018-03-19T17:13:54.590Z,96185.34
2018-03-19T17:15:33.274Z,96180.55
2018-03-19T17:17:11.869Z,96257.26
2018-03-19T17:18:50.413Z,96209.47
2018-03-19T17:20:29.409Z,96180.13
2018-03-19T17:22:07.310Z,96145.72
2018-03-19T17:23:46.056Z,96106.89
2018-03-19T17:25:24.864Z,96110.75
2018-03-19T17:27:03.738Z,96189.55
2018-03-19T17:28:42.293Z,96291.34
2018-03-19T17:30:20.909Z,96153.41
2018-03-19T17:31:59.881Z,96171.48
2018-03-19T17:33:38.286Z,96080.58
2018-03-19T17:35:16.269Z,96114.69
2018-03-19T17:36:56.102Z,96111.10
2018-03-19T17:38:34.521Z,96211.98
2018-03-19T17:40:13.755Z,96231.88
2018-03-19T17:41:52.249Z,96201.67
2018-03-19T17:43:30.751Z,96168.43
2018-03-19T17:45:10.091Z,96128.78
2018-03-19T17:46:54.422Z,96060.39
2018-03-19T17:48:33.670Z,96175.84
2018-03-19T17:50:12.286Z,96089.25
2018-03-19T17:51:51.148Z,96009.19
2018-03-19T17:53:30.380Z,96165.48
2018-03-19T17:55:08.003Z,96119.25
2018-03-19T17:56:46.603Z,96101.19
2018-03-19T17:58:24.763Z,96071.97
2018-03-19T18:00:05.028Z,96012.63
2018-03-19T18:01:47.307Z,95929.10
2018-03-19T18:03:24.863Z,95882.72
2018-03-19T18:05:03.708Z,95901.19
2018-03-19T18:06:42.287Z,95886.08
2018-03-19T18:08:21.007Z,95973.41
2018-03-19T18:09:59.250Z,95992.27
2018-03-19T18:11:37.158Z,96082.27
2018-03-19T18:13:15.503Z,96057.73
2018-03-19T18:14:53.335Z,96136.16
2018-03-19T18:16:31.464Z,96168.05
2018-03-19T18:18:10.878Z,96131.83
2018-03-19T18:19:49.515Z,96142.17
2018-03-19T18:21:31.760Z,96095.62
2018-03-19T18:23:09.785Z,96032.80
2018-03-19T18:24:48.082Z,96138.24
2018-03-19T18:26:25.902Z,96134.30
2018-03-19T18:28:05.056Z,96095.98
2018-03-19T18:29:43.668Z,96097.72
2018-03-19T18:31:23.705Z,96123.58
2018-03-19T18:33:02.365Z,96154.68
2018-03-19T18:34:40.447Z,96155.92
2018-03-19T18:36:18.641Z,96279.17
2018-03-19T18:37:57.820Z,96333.94
2018-03-19T18:39:36.514Z,96186.44
2018-03-19T18:41:15.394Z,95961.37
2018-03-19T18:42:54.485Z,95938.09
2018-03-19T18:44:33.288Z,96076.61
2018-03-19T18:46:12.943Z,96064.56
2018-03-19T18:47:52.482Z,96080.89
2018-03-19T18:49:31.076Z,95992.27
2018-03-19T18:51:09.575Z,95899.84
2018-03-19T18:52:47.630Z,95803.47
2018-03-19T18:54:26.261Z,95801.73
2018-03-19T18:56:05.075Z,95797.39
2018-03-19T18:57:44.235Z,95860.58
2018-03-19T18:59:22.761Z,95981.08
2018-03-19T19:01:04.867Z,96039.60
2018-03-19T19:02:43.316Z,95945.30
2018-03-19T19:04:22.124Z,95963.50
2018-03-19T19:06:01.274Z,95994.86
2018-03-19T19:07:39.104Z,96015.95
2018-03-19T19:09:17.088Z,96025.52
2018-03-19T19:10:55.389Z,96031.81
2018-03-19T19:12:33.697Z,96073.98
2018-03-19T19:14:12.213Z,96039.22
2018-03-19T19:15:50.557Z,96003.88
2018-03-19T19:17:33.064Z,96032.27
2018-03-19T19:19:11.482Z,95967.70
2018-03-19T19:20:49.556Z,95865.66
2018-03-19T19:22:27.695Z,95968.17
2018-03-19T19:24:06.903Z,96038.72
2018-03-19T19:25:45.720Z,95831.26